YHZ weather

Halifax / Stanfield International Airport
Halifax, Nova Scotia, Canada

Public forecast

Using degrees Celsius for public forecast. Weather courtesy of forecast.io.

Current aviation weather report (METAR) for Halifax / Stanfield International Airport

Retrieved 2020/07/16 17:00 UTC (45 minutes ago):

CYHZ 161700Z 03007KT 15SM FEW016 OVC028 16/12 A3034 RMK CU2SC6 SLP277

Aviation forecast (TAF) for Halifax / Stanfield International Airport

Retrieved 2020/07/16 15:39 UTC (2 hours ago):

TAF CYHZ 161438Z 1615/1712 05012KT P6SM BKN030 FM161900 02010KT P6SM SCT040 BECMG 1622/1624 18005KT FM170400 19005KT 6SM BR FEW003 BKN200 PROB30 1704/1710 1SM BR BKN003 FM171000 23007KT P6SM FEW010 SCT160 RMK NXT FCST BY 161800Z